sensor_id;sensor_type;location;lat;lon;timestamp;temperature;humidity
1626;DHT22;806;48.770;9.156;2023-03-13T00:01:02;8.30;99.90
1626;DHT22;806;48.770;9.156;2023-03-13T00:03:35;8.30;99.90
1626;DHT22;806;48.770;9.156;2023-03-13T00:06:02;8.30;99.90
1626;DHT22;806;48.770;9.156;2023-03-13T00:11:52;8.60;99.90
1626;DHT22;806;48.770;9.156;2023-03-13T00:14:20;8.70;99.90
1626;DHT22;806;48.770;9.156;2023-03-13T00:16:47;8.70;99.90
1626;DHT22;806;48.770;9.156;2023-03-13T00:19:14;8.60;99.90
1626;DHT22;806;48.770;9.156;2023-03-13T00:21:41;8.60;99.90
1626;DHT22;806;48.770;9.156;2023-03-13T00:24:09;8.50;99.90
1626;DHT22;806;48.770;9.156;2023-03-13T00:26:37;8.40;99.90
1626;DHT22;806;48.770;9.156;2023-03-13T00:29:05;8.40;99.90
1626;DHT22;806;48.770;9.156;2023-03-13T00:31:32;8.40;99.90
1626;DHT22;806;48.770;9.156;2023-03-13T00:34:02;8.50;99.90
1626;DHT22;806;48.770;9.156;2023-03-13T00:36:31;8.50;99.90
1626;DHT22;806;48.770;9.156;2023-03-13T00:38:59;8.70;99.90
1626;DHT22;806;48.770;9.156;2023-03-13T00:41:28;8.80;99.90
1626;DHT22;806;48.770;9.156;2023-03-13T00:43:55;8.90;99.90
1626;DHT22;806;48.770;9.156;2023-03-13T00:46:26;8.90;99.90
1626;DHT22;806;48.770;9.156;2023-03-13T00:48:53;8.80;99.90
1626;DHT22;806;48.770;9.156;2023-03-13T00:51:22;8.80;99.90
1626;DHT22;806;48.770;9.156;2023-03-13T00:53:51;8.80;99.90
1626;DHT22;806;48.770;9.156;2023-03-13T00:56:19;8.80;99.90
1626;DHT22;806;48.770;9.156;2023-03-13T00:58:48;8.80;99.90
1626;DHT22;806;48.770;9.156;2023-03-13T01:01:17;8.70;99.90
1626;DHT22;806;48.770;9.156;2023-03-13T01:03:48;8.70;99.90
1626;DHT22;806;48.770;9.156;2023-03-13T01:06:17;8.60;99.90
1626;DHT22;806;48.770;9.156;2023-03-13T01:08:45;8.60;99.90
1626;DHT22;806;48.770;9.156;2023-03-13T01:11:14;8.60;99.90
1626;DHT22;806;48.770;9.156;2023-03-13T01:13:41;8.60;99.90
1626;DHT22;806;48.770;9.156;2023-03-13T01:16:11;8.60;99.90
1626;DHT22;806;48.770;9.156;2023-03-13T01:18:40;8.60;99.90
1626;DHT22;806;48.770;9.156;2023-03-13T01:21:09;8.50;99.90
1626;DHT22;806;48.770;9.156;2023-03-13T01:23:36;8.50;99.90
1626;DHT22;806;48.770;9.156;2023-03-13T01:26:05;8.50;99.90
1626;DHT22;806;48.770;9.156;2023-03-13T01:28:33;8.50;99.90
1626;DHT22;806;48.770;9.156;2023-03-13T01:31:03;8.50;99.90
1626;DHT22;806;48.770;9.156;2023-03-13T01:33:35;8.60;99.90
1626;DHT22;806;48.770;9.156;2023-03-13T01:36:03;8.70;99.90
1626;DHT22;806;48.770;9.156;2023-03-13T01:38:32;8.70;99.90
1626;DHT22;806;48.770;9.156;2023-03-13T01:40:59;8.70;99.90
1626;DHT22;806;48.770;9.156;2023-03-13T01:43:27;8.80;99.90
1626;DHT22;806;48.770;9.156;2023-03-13T01:46:01;8.90;99.90
1626;DHT22;806;48.770;9.156;2023-03-13T01:48:34;8.80;99.90
1626;DHT22;806;48.770;9.156;2023-03-13T01:51:05;8.80;99.90
1626;DHT22;806;48.770;9.156;2023-03-13T01:53:36;8.90;99.90
1626;DHT22;806;48.770;9.156;2023-03-13T01:56:07;8.90;99.90
1626;DHT22;806;48.770;9.156;2023-03-13T01:58:36;8.90;99.90
1626;DHT22;806;48.770;9.156;2023-03-13T02:01:04;9.00;99.90
1626;DHT22;806;48.770;9.156;2023-03-13T02:03:32;9.00;99.90
1626;DHT22;806;48.770;9.156;2023-03-13T02:06:01;9.10;99.90
1626;DHT22;806;48.770;9.156;2023-03-13T02:08:34;9.20;99.90
1626;DHT22;806;48.770;9.156;2023-03-13T02:11:09;9.20;99.90
1626;DHT22;806;48.770;9.156;2023-03-13T02:13:39;9.20;99.90
1626;DHT22;806;48.770;9.156;2023-03-13T02:16:07;9.30;99.90
1626;DHT22;806;48.770;9.156;2023-03-13T02:18:35;9.20;99.90
1626;DHT22;806;48.770;9.156;2023-03-13T02:21:09;9.30;99.90
1626;DHT22;806;48.770;9.156;2023-03-13T02:23:45;9.30;99.90
1626;DHT22;806;48.770;9.156;2023-03-13T02:26:15;9.40;99.90
1626;DHT22;806;48.770;9.156;2023-03-13T02:28:42;9.40;99.90
1626;DHT22;806;48.770;9.156;2023-03-13T02:31:10;9.40;99.90
1626;DHT22;806;48.770;9.156;2023-03-13T02:33:39;9.30;99.90
1626;DHT22;806;48.770;9.156;2023-03-13T02:36:07;9.50;99.90
1626;DHT22;806;48.770;9.156;2023-03-13T02:38:39;9.50;99.90
1626;DHT22;806;48.770;9.156;2023-03-13T02:41:07;9.60;99.90
1626;DHT22;806;48.770;9.156;2023-03-13T02:43:37;9.50;99.90
1626;DHT22;806;48.770;9.156;2023-03-13T02:46:07;9.60;99.90
1626;DHT22;806;48.770;9.156;2023-03-13T02:48:37;9.50;99.90
1626;DHT22;806;48.770;9.156;2023-03-13T02:51:10;9.70;99.90
1626;DHT22;806;48.770;9.156;2023-03-13T02:53:39;9.60;99.90
1626;DHT22;806;48.770;9.156;2023-03-13T02:56:07;9.60;99.90
1626;DHT22;806;48.770;9.156;2023-03-13T02:58:39;9.60;99.90
1626;DHT22;806;48.770;9.156;2023-03-13T03:01:06;9.60;99.90
1626;DHT22;806;48.770;9.156;2023-03-13T03:03:34;9.60;99.90
1626;DHT22;806;48.770;9.156;2023-03-13T03:06:03;9.70;99.90
1626;DHT22;806;48.770;9.156;2023-03-13T03:08:31;9.70;99.90
1626;DHT22;806;48.770;9.156;2023-03-13T03:10:58;9.80;99.90
1626;DHT22;806;48.770;9.156;2023-03-13T03:13:25;9.80;99.90
1626;DHT22;806;48.770;9.156;2023-03-13T03:15:54;9.80;99.90
1626;DHT22;806;48.770;9.156;2023-03-13T03:18:21;9.90;99.90
1626;DHT22;806;48.770;9.156;2023-03-13T03:20:48;9.90;99.90
1626;DHT22;806;48.770;9.156;2023-03-13T03:23:15;9.90;99.90
1626;DHT22;806;48.770;9.156;2023-03-13T03:25:42;9.90;99.90
1626;DHT22;806;48.770;9.156;2023-03-13T03:28:09;9.90;99.90
1626;DHT22;806;48.770;9.156;2023-03-13T03:30:37;9.80;99.90
1626;DHT22;806;48.770;9.156;2023-03-13T03:33:05;9.80;99.90
1626;DHT22;806;48.770;9.156;2023-03-13T03:35:32;9.80;99.90
1626;DHT22;806;48.770;9.156;2023-03-13T03:38:03;9.80;99.90
1626;DHT22;806;48.770;9.156;2023-03-13T03:40:31;9.70;99.90
1626;DHT22;806;48.770;9.156;2023-03-13T03:42:58;9.80;99.90
1626;DHT22;806;48.770;9.156;2023-03-13T03:45:25;9.80;99.90
1626;DHT22;806;48.770;9.156;2023-03-13T03:47:52;9.80;99.90
1626;DHT22;806;48.770;9.156;2023-03-13T03:50:20;9.80;99.90
1626;DHT22;806;48.770;9.156;2023-03-13T03:52:47;9.80;99.90
1626;DHT22;806;48.770;9.156;2023-03-13T03:55:18;9.80;99.90
1626;DHT22;806;48.770;9.156;2023-03-13T03:57:46;9.90;99.90
1626;DHT22;806;48.770;9.156;2023-03-13T04:00:13;10.00;99.90
1626;DHT22;806;48.770;9.156;2023-03-13T04:02:41;10.10;99.90
1626;DHT22;806;48.770;9.156;2023-03-13T04:05:08;10.10;99.90
1626;DHT22;806;48.770;9.156;2023-03-13T04:07:37;10.10;99.90
1626;DHT22;806;48.770;9.156;2023-03-13T04:10:05;10.20;99.90
1626;DHT22;806;48.770;9.156;2023-03-13T04:12:32;10.30;99.90
1626;DHT22;806;48.770;9.156;2023-03-13T04:14:59;10.60;99.90
1626;DHT22;806;48.770;9.156;2023-03-13T04:17:26;10.70;99.90
1626;DHT22;806;48.770;9.156;2023-03-13T04:19:54;11.00;99.90
1626;DHT22;806;48.770;9.156;2023-03-13T04:22:21;11.20;99.90
1626;DHT22;806;48.770;9.156;2023-03-13T04:24:49;11.30;99.90
1626;DHT22;806;48.770;9.156;2023-03-13T04:27:16;11.40;99.90
1626;DHT22;806;48.770;9.156;2023-03-13T04:29:44;11.50;99.90
1626;DHT22;806;48.770;9.156;2023-03-13T04:32:11;11.60;99.90
1626;DHT22;806;48.770;9.156;2023-03-13T04:34:38;11.60;99.90
1626;DHT22;806;48.770;9.156;2023-03-13T04:37:05;11.70;99.90
1626;DHT22;806;48.770;9.156;2023-03-13T04:39:32;11.80;99.90
1626;DHT22;806;48.770;9.156;2023-03-13T04:42:01;11.80;99.90
1626;DHT22;806;48.770;9.156;2023-03-13T04:44:28;11.80;99.90
1626;DHT22;806;48.770;9.156;2023-03-13T04:46:55;11.90;99.90
1626;DHT22;806;48.770;9.156;2023-03-13T04:49:22;11.80;99.90
1626;DHT22;806;48.770;9.156;2023-03-13T04:51:49;11.90;99.90
1626;DHT22;806;48.770;9.156;2023-03-13T04:54:16;11.90;99.90
1626;DHT22;806;48.770;9.156;2023-03-13T04:56:44;11.90;99.90
1626;DHT22;806;48.770;9.156;2023-03-13T04:59:13;11.80;99.90
1626;DHT22;806;48.770;9.156;2023-03-13T05:01:41;11.90;99.90
1626;DHT22;806;48.770;9.156;2023-03-13T05:04:08;11.90;99.90
1626;DHT22;806;48.770;9.156;2023-03-13T05:06:36;11.80;99.90
1626;DHT22;806;48.770;9.156;2023-03-13T05:09:03;11.80;99.90
1626;DHT22;806;48.770;9.156;2023-03-13T05:11:31;11.80;99.90
1626;DHT22;806;48.770;9.156;2023-03-13T05:13:58;11.80;99.90
1626;DHT22;806;48.770;9.156;2023-03-13T05:16:27;11.80;99.90
1626;DHT22;806;48.770;9.156;2023-03-13T05:18:54;11.90;99.90
1626;DHT22;806;48.770;9.156;2023-03-13T05:21:21;11.80;99.90
1626;DHT22;806;48.770;9.156;2023-03-13T05:23:48;11.80;99.90
1626;DHT22;806;48.770;9.156;2023-03-13T05:26:15;11.80;99.90
1626;DHT22;806;48.770;9.156;2023-03-13T05:28:43;11.80;99.90
1626;DHT22;806;48.770;9.156;2023-03-13T05:31:10;11.90;99.90
1626;DHT22;806;48.770;9.156;2023-03-13T05:33:38;11.90;99.90
1626;DHT22;806;48.770;9.156;2023-03-13T05:36:06;11.90;99.90
1626;DHT22;806;48.770;9.156;2023-03-13T05:38:33;11.90;99.90
1626;DHT22;806;48.770;9.156;2023-03-13T05:41:00;11.90;99.90
1626;DHT22;806;48.770;9.156;2023-03-13T05:43:27;11.90;99.90
1626;DHT22;806;48.770;9.156;2023-03-13T05:45:54;11.90;99.90
1626;DHT22;806;48.770;9.156;2023-03-13T05:48:22;11.90;99.90
1626;DHT22;806;48.770;9.156;2023-03-13T05:50:51;12.00;99.90
1626;DHT22;806;48.770;9.156;2023-03-13T05:53:18;12.00;99.90
1626;DHT22;806;48.770;9.156;2023-03-13T05:55:45;12.00;99.90
1626;DHT22;806;48.770;9.156;2023-03-13T05:58:12;12.00;99.90
1626;DHT22;806;48.770;9.156;2023-03-13T06:00:39;12.10;99.90
1626;DHT22;806;48.770;9.156;2023-03-13T06:03:08;12.10;99.90
1626;DHT22;806;48.770;9.156;2023-03-13T06:05:35;12.10;99.90
1626;DHT22;806;48.770;9.156;2023-03-13T06:08:04;12.10;99.90
1626;DHT22;806;48.770;9.156;2023-03-13T06:10:31;12.20;99.90
1626;DHT22;806;48.770;9.156;2023-03-13T06:12:59;12.20;99.90
1626;DHT22;806;48.770;9.156;2023-03-13T06:15:26;12.20;99.90
1626;DHT22;806;48.770;9.156;2023-03-13T06:17:53;12.20;99.90
1626;DHT22;806;48.770;9.156;2023-03-13T06:20:20;12.20;99.90
1626;DHT22;806;48.770;9.156;2023-03-13T06:22:48;12.30;99.90
1626;DHT22;806;48.770;9.156;2023-03-13T06:25:16;12.30;99.90
1626;DHT22;806;48.770;9.156;2023-03-13T06:27:43;12.30;99.90
1626;DHT22;806;48.770;9.156;2023-03-13T06:30:11;12.40;99.90
1626;DHT22;806;48.770;9.156;2023-03-13T06:32:38;12.40;99.90
1626;DHT22;806;48.770;9.156;2023-03-13T06:35:06;12.40;99.90
1626;DHT22;806;48.770;9.156;2023-03-13T06:37:33;12.40;99.90
1626;DHT22;806;48.770;9.156;2023-03-13T06:40:00;12.40;99.90
1626;DHT22;806;48.770;9.156;2023-03-13T06:42:32;12.40;99.90
1626;DHT22;806;48.770;9.156;2023-03-13T06:44:59;12.50;99.90
1626;DHT22;806;48.770;9.156;2023-03-13T06:47:29;12.50;99.90
1626;DHT22;806;48.770;9.156;2023-03-13T06:49:56;12.50;99.90
1626;DHT22;806;48.770;9.156;2023-03-13T06:52:24;12.60;99.90
1626;DHT22;806;48.770;9.156;2023-03-13T06:54:51;12.60;99.90
1626;DHT22;806;48.770;9.156;2023-03-13T06:57:18;12.60;99.90
1626;DHT22;806;48.770;9.156;2023-03-13T06:59:47;12.60;99.90
1626;DHT22;806;48.770;9.156;2023-03-13T07:02:14;12.70;99.90
1626;DHT22;806;48.770;9.156;2023-03-13T07:04:42;12.70;99.90
1626;DHT22;806;48.770;9.156;2023-03-13T07:07:10;12.70;99.90
1626;DHT22;806;48.770;9.156;2023-03-13T07:09:37;12.70;99.90
1626;DHT22;806;48.770;9.156;2023-03-13T07:12:05;12.70;99.90
1626;DHT22;806;48.770;9.156;2023-03-13T07:14:32;12.70;99.90
1626;DHT22;806;48.770;9.156;2023-03-13T07:17:01;12.80;99.90
1626;DHT22;806;48.770;9.156;2023-03-13T07:19:28;12.80;99.90
1626;DHT22;806;48.770;9.156;2023-03-13T07:21:55;12.90;99.90
1626;DHT22;806;48.770;9.156;2023-03-13T07:24:22;12.90;99.90
1626;DHT22;806;48.770;9.156;2023-03-13T07:26:49;12.90;99.90
1626;DHT22;806;48.770;9.156;2023-03-13T07:29:16;12.90;99.90
1626;DHT22;806;48.770;9.156;2023-03-13T07:31:44;12.90;99.90
1626;DHT22;806;48.770;9.156;2023-03-13T07:34:12;12.90;99.90
1626;DHT22;806;48.770;9.156;2023-03-13T07:36:39;12.90;99.90
1626;DHT22;806;48.770;9.156;2023-03-13T07:39:07;12.80;99.90
1626;DHT22;806;48.770;9.156;2023-03-13T07:41:34;12.80;99.90
1626;DHT22;806;48.770;9.156;2023-03-13T07:44:01;12.90;99.90
1626;DHT22;806;48.770;9.156;2023-03-13T07:46:28;12.90;99.90
1626;DHT22;806;48.770;9.156;2023-03-13T07:48:55;12.90;99.90
1626;DHT22;806;48.770;9.156;2023-03-13T07:51:25;13.00;99.90
1626;DHT22;806;48.770;9.156;2023-03-13T07:53:52;12.90;99.90
1626;DHT22;806;48.770;9.156;2023-03-13T07:56:21;12.90;99.90
1626;DHT22;806;48.770;9.156;2023-03-13T07:58:49;12.90;99.90
1626;DHT22;806;48.770;9.156;2023-03-13T08:01:21;13.00;99.90
1626;DHT22;806;48.770;9.156;2023-03-13T08:03:48;13.00;99.90
1626;DHT22;806;48.770;9.156;2023-03-13T08:06:18;13.00;99.90
1626;DHT22;806;48.770;9.156;2023-03-13T08:08:46;13.00;99.90
1626;DHT22;806;48.770;9.156;2023-03-13T08:11:15;13.10;99.90
1626;DHT22;806;48.770;9.156;2023-03-13T08:13:43;13.20;99.90
1626;DHT22;806;48.770;9.156;2023-03-13T08:16:11;13.30;99.90
1626;DHT22;806;48.770;9.156;2023-03-13T08:18:41;13.40;99.90
1626;DHT22;806;48.770;9.156;2023-03-13T08:21:10;13.40;99.90
1626;DHT22;806;48.770;9.156;2023-03-13T08:23:38;13.50;99.90
1626;DHT22;806;48.770;9.156;2023-03-13T08:26:08;13.60;99.90
1626;DHT22;806;48.770;9.156;2023-03-13T08:28:36;13.70;99.90
1626;DHT22;806;48.770;9.156;2023-03-13T08:31:08;13.80;99.90
1626;DHT22;806;48.770;9.156;2023-03-13T08:33:36;13.80;99.90
1626;DHT22;806;48.770;9.156;2023-03-13T08:36:14;13.80;99.90
1626;DHT22;806;48.770;9.156;2023-03-13T08:38:42;13.80;99.90
1626;DHT22;806;48.770;9.156;2023-03-13T08:41:11;13.90;99.90
1626;DHT22;806;48.770;9.156;2023-03-13T08:43:39;14.00;99.90
1626;DHT22;806;48.770;9.156;2023-03-13T08:46:06;14.10;99.90
1626;DHT22;806;48.770;9.156;2023-03-13T08:48:33;14.00;99.90
1626;DHT22;806;48.770;9.156;2023-03-13T08:51:03;14.10;99.90
1626;DHT22;806;48.770;9.156;2023-03-13T08:53:31;14.10;99.90
1626;DHT22;806;48.770;9.156;2023-03-13T08:55:59;14.20;99.90
1626;DHT22;806;48.770;9.156;2023-03-13T08:58:28;14.20;99.90
1626;DHT22;806;48.770;9.156;2023-03-13T09:01:00;14.20;99.90
1626;DHT22;806;48.770;9.156;2023-03-13T09:03:27;14.20;99.90
1626;DHT22;806;48.770;9.156;2023-03-13T09:05:56;14.30;99.90
1626;DHT22;806;48.770;9.156;2023-03-13T09:08:23;14.40;99.90
1626;DHT22;806;48.770;9.156;2023-03-13T09:10:54;14.40;99.90
1626;DHT22;806;48.770;9.156;2023-03-13T09:13:21;14.40;99.90
1626;DHT22;806;48.770;9.156;2023-03-13T09:15:54;14.40;99.90
1626;DHT22;806;48.770;9.156;2023-03-13T09:18:22;14.40;99.90
1626;DHT22;806;48.770;9.156;2023-03-13T09:20:50;14.40;99.90
1626;DHT22;806;48.770;9.156;2023-03-13T09:23:17;14.50;99.90
1626;DHT22;806;48.770;9.156;2023-03-13T09:25:44;14.50;99.90
1626;DHT22;806;48.770;9.156;2023-03-13T09:28:11;14.60;99.90
1626;DHT22;806;48.770;9.156;2023-03-13T09:30:39;14.70;99.90
1626;DHT22;806;48.770;9.156;2023-03-13T09:33:07;14.80;99.90
1626;DHT22;806;48.770;9.156;2023-03-13T09:35:36;14.80;99.90
1626;DHT22;806;48.770;9.156;2023-03-13T09:38:04;14.90;99.90
1626;DHT22;806;48.770;9.156;2023-03-13T09:40:37;14.90;99.90
1626;DHT22;806;48.770;9.156;2023-03-13T09:43:17;14.90;99.90
1626;DHT22;806;48.770;9.156;2023-03-13T09:45:45;14.90;99.90
1626;DHT22;806;48.770;9.156;2023-03-13T09:48:28;14.90;99.90
1626;DHT22;806;48.770;9.156;2023-03-13T09:51:00;15.00;99.90
1626;DHT22;806;48.770;9.156;2023-03-13T09:53:33;15.10;99.90
1626;DHT22;806;48.770;9.156;2023-03-13T09:56:03;15.30;99.90
1626;DHT22;806;48.770;9.156;2023-03-13T09:58:32;15.30;99.90
1626;DHT22;806;48.770;9.156;2023-03-13T10:01:02;15.40;99.90
1626;DHT22;806;48.770;9.156;2023-03-13T10:03:37;15.60;99.90
1626;DHT22;806;48.770;9.156;2023-03-13T10:06:12;15.60;99.90
1626;DHT22;806;48.770;9.156;2023-03-13T10:08:41;15.60;99.90
1626;DHT22;806;48.770;9.156;2023-03-13T10:11:10;15.50;99.90
1626;DHT22;806;48.770;9.156;2023-03-13T10:13:43;15.60;99.90
1626;DHT22;806;48.770;9.156;2023-03-13T10:16:16;15.80;99.90
1626;DHT22;806;48.770;9.156;2023-03-13T10:18:48;16.10;99.90
1626;DHT22;806;48.770;9.156;2023-03-13T10:21:20;16.40;99.90
1626;DHT22;806;48.770;9.156;2023-03-13T10:23:50;16.60;99.90
1626;DHT22;806;48.770;9.156;2023-03-13T10:26:22;16.80;99.90
1626;DHT22;806;48.770;9.156;2023-03-13T10:28:51;16.90;99.90
1626;DHT22;806;48.770;9.156;2023-03-13T10:31:23;17.20;99.90
1626;DHT22;806;48.770;9.156;2023-03-13T10:33:55;17.40;99.90
1626;DHT22;806;48.770;9.156;2023-03-13T10:36:38;17.50;99.90
1626;DHT22;806;48.770;9.156;2023-03-13T10:39:07;17.30;99.90
1626;DHT22;806;48.770;9.156;2023-03-13T10:41:40;17.20;99.90
1626;DHT22;806;48.770;9.156;2023-03-13T10:44:15;17.30;99.90
1626;DHT22;806;48.770;9.156;2023-03-13T10:46:44;17.30;99.90
1626;DHT22;806;48.770;9.156;2023-03-13T10:49:15;17.20;99.90
1626;DHT22;806;48.770;9.156;2023-03-13T10:51:46;17.10;99.90
1626;DHT22;806;48.770;9.156;2023-03-13T10:54:18;17.10;99.90
1626;DHT22;806;48.770;9.156;2023-03-13T10:56:47;17.00;99.90
1626;DHT22;806;48.770;9.156;2023-03-13T10:59:21;17.10;99.90
1626;DHT22;806;48.770;9.156;2023-03-13T11:01:49;17.30;99.90
1626;DHT22;806;48.770;9.156;2023-03-13T11:04:31;17.40;99.90
1626;DHT22;806;48.770;9.156;2023-03-13T11:07:01;17.50;99.90
1626;DHT22;806;48.770;9.156;2023-03-13T11:09:29;17.60;99.90
1626;DHT22;806;48.770;9.156;2023-03-13T11:12:03;17.90;99.90
1626;DHT22;806;48.770;9.156;2023-03-13T11:14:31;17.70;99.90
1626;DHT22;806;48.770;9.156;2023-03-13T11:17:03;17.80;99.90
1626;DHT22;806;48.770;9.156;2023-03-13T11:22:39;17.50;99.90
1626;DHT22;806;48.770;9.156;2023-03-13T11:25:18;17.50;99.90
1626;DHT22;806;48.770;9.156;2023-03-13T11:27:57;17.40;99.90
1626;DHT22;806;48.770;9.156;2023-03-13T11:30:48;17.40;99.90
1626;DHT22;806;48.770;9.156;2023-03-13T11:33:28;17.40;99.90
1626;DHT22;806;48.770;9.156;2023-03-13T11:36:04;17.50;99.90
1626;DHT22;806;48.770;9.156;2023-03-13T11:38:36;17.80;99.90
1626;DHT22;806;48.770;9.156;2023-03-13T11:41:11;18.00;99.90
1626;DHT22;806;48.770;9.156;2023-03-13T11:43:58;18.40;99.90
1626;DHT22;806;48.770;9.156;2023-03-13T11:46:36;18.90;99.90
1626;DHT22;806;48.770;9.156;2023-03-13T11:49:32;19.20;99.90
1626;DHT22;806;48.770;9.156;2023-03-13T11:52:11;19.40;99.90
1626;DHT22;806;48.770;9.156;2023-03-13T11:57:33;19.30;99.90
1626;DHT22;806;48.770;9.156;2023-03-13T12:00:23;19.40;99.90
1626;DHT22;806;48.770;9.156;2023-03-13T12:02:56;19.40;99.90
1626;DHT22;806;48.770;9.156;2023-03-13T12:05:37;19.40;99.90
1626;DHT22;806;48.770;9.156;2023-03-13T12:08:11;19.70;99.90
1626;DHT22;806;48.770;9.156;2023-03-13T12:10:46;19.70;99.90
1626;DHT22;806;48.770;9.156;2023-03-13T12:13:18;19.70;99.90
1626;DHT22;806;48.770;9.156;2023-03-13T12:15:50;19.80;99.90
1626;DHT22;806;48.770;9.156;2023-03-13T12:18:22;19.80;99.90
1626;DHT22;806;48.770;9.156;2023-03-13T12:20:55;19.80;99.90
1626;DHT22;806;48.770;9.156;2023-03-13T12:23:34;19.80;99.90
1626;DHT22;806;48.770;9.156;2023-03-13T12:26:05;20.00;99.90
1626;DHT22;806;48.770;9.156;2023-03-13T12:28:37;19.90;99.90
1626;DHT22;806;48.770;9.156;2023-03-13T12:31:15;19.80;99.90
1626;DHT22;806;48.770;9.156;2023-03-13T12:33:47;20.10;99.90
1626;DHT22;806;48.770;9.156;2023-03-13T12:36:21;20.40;99.90
1626;DHT22;806;48.770;9.156;2023-03-13T12:38:55;20.70;99.90
1626;DHT22;806;48.770;9.156;2023-03-13T12:41:27;20.70;99.90
1626;DHT22;806;48.770;9.156;2023-03-13T12:43:57;20.60;99.90
1626;DHT22;806;48.770;9.156;2023-03-13T12:46:36;20.50;99.90
1626;DHT22;806;48.770;9.156;2023-03-13T12:49:29;20.40;99.90
1626;DHT22;806;48.770;9.156;2023-03-13T12:55:36;20.40;99.90
1626;DHT22;806;48.770;9.156;2023-03-13T12:58:21;20.30;99.90
1626;DHT22;806;48.770;9.156;2023-03-13T13:00:52;20.30;99.90
1626;DHT22;806;48.770;9.156;2023-03-13T13:03:28;20.40;99.90
1626;DHT22;806;48.770;9.156;2023-03-13T13:06:04;20.40;99.90
1626;DHT22;806;48.770;9.156;2023-03-13T13:08:35;20.50;99.90
1626;DHT22;806;48.770;9.156;2023-03-13T13:11:37;20.50;99.90
1626;DHT22;806;48.770;9.156;2023-03-13T13:17:33;20.70;99.90
1626;DHT22;806;48.770;9.156;2023-03-13T13:23:22;20.70;99.90
1626;DHT22;806;48.770;9.156;2023-03-13T13:25:50;20.80;99.90
1626;DHT22;806;48.770;9.156;2023-03-13T13:28:32;20.90;99.90
1626;DHT22;806;48.770;9.156;2023-03-13T13:30:59;20.90;99.90
1626;DHT22;806;48.770;9.156;2023-03-13T13:33:39;21.00;99.90
1626;DHT22;806;48.770;9.156;2023-03-13T13:36:29;20.90;99.90
1626;DHT22;806;48.770;9.156;2023-03-13T13:38:57;20.60;99.90
1626;DHT22;806;48.770;9.156;2023-03-13T13:41:35;20.50;99.90
1626;DHT22;806;48.770;9.156;2023-03-13T13:44:27;20.40;99.90
1626;DHT22;806;48.770;9.156;2023-03-13T13:46:57;20.30;99.90
1626;DHT22;806;48.770;9.156;2023-03-13T13:49:35;20.20;99.90
1626;DHT22;806;48.770;9.156;2023-03-13T13:52:36;20.10;99.90
1626;DHT22;806;48.770;9.156;2023-03-13T13:55:33;20.20;99.90
1626;DHT22;806;48.770;9.156;2023-03-13T13:58:12;20.20;99.90
1626;DHT22;806;48.770;9.156;2023-03-13T14:00:44;20.20;99.90
1626;DHT22;806;48.770;9.156;2023-03-13T14:03:20;20.30;99.90
1626;DHT22;806;48.770;9.156;2023-03-13T14:05:51;20.40;99.90
1626;DHT22;806;48.770;9.156;2023-03-13T14:08:23;20.30;99.90
1626;DHT22;806;48.770;9.156;2023-03-13T14:10:54;20.30;99.90
1626;DHT22;806;48.770;9.156;2023-03-13T14:13:30;20.30;99.90
1626;DHT22;806;48.770;9.156;2023-03-13T14:16:17;20.30;99.90
1626;DHT22;806;48.770;9.156;2023-03-13T14:18:44;20.30;99.90
1626;DHT22;806;48.770;9.156;2023-03-13T14:21:12;20.30;99.90
1626;DHT22;806;48.770;9.156;2023-03-13T14:23:41;20.30;99.90
1626;DHT22;806;48.770;9.156;2023-03-13T14:26:12;20.40;99.90
1626;DHT22;806;48.770;9.156;2023-03-13T14:28:43;20.40;99.90
1626;DHT22;806;48.770;9.156;2023-03-13T14:31:24;20.50;99.90
1626;DHT22;806;48.770;9.156;2023-03-13T14:33:51;20.60;99.90
1626;DHT22;806;48.770;9.156;2023-03-13T14:36:18;20.60;99.90
1626;DHT22;806;48.770;9.156;2023-03-13T14:38:53;20.70;99.90
1626;DHT22;806;48.770;9.156;2023-03-13T14:41:28;20.80;99.90
1626;DHT22;806;48.770;9.156;2023-03-13T14:44:02;20.80;99.90
1626;DHT22;806;48.770;9.156;2023-03-13T14:46:34;20.80;99.90
1626;DHT22;806;48.770;9.156;2023-03-13T14:49:07;20.80;99.90
1626;DHT22;806;48.770;9.156;2023-03-13T14:51:38;20.80;99.90
1626;DHT22;806;48.770;9.156;2023-03-13T14:54:23;20.80;99.90
1626;DHT22;806;48.770;9.156;2023-03-13T14:57:05;20.80;99.90
1626;DHT22;806;48.770;9.156;2023-03-13T14:59:38;20.80;99.90
1626;DHT22;806;48.770;9.156;2023-03-13T15:02:15;20.80;99.90
1626;DHT22;806;48.770;9.156;2023-03-13T15:04:53;20.70;99.90
1626;DHT22;806;48.770;9.156;2023-03-13T15:07:24;20.60;99.90
1626;DHT22;806;48.770;9.156;2023-03-13T15:09:53;20.70;99.90
1626;DHT22;806;48.770;9.156;2023-03-13T15:12:22;20.70;99.90
1626;DHT22;806;48.770;9.156;2023-03-13T15:14:50;20.70;99.90
1626;DHT22;806;48.770;9.156;2023-03-13T15:17:20;20.70;99.90
1626;DHT22;806;48.770;9.156;2023-03-13T15:19:49;20.60;99.90
1626;DHT22;806;48.770;9.156;2023-03-13T15:22:19;20.50;99.90
1626;DHT22;806;48.770;9.156;2023-03-13T15:24:47;20.40;99.90
1626;DHT22;806;48.770;9.156;2023-03-13T15:27:16;20.40;99.90
1626;DHT22;806;48.770;9.156;2023-03-13T15:29:44;20.30;99.90
1626;DHT22;806;48.770;9.156;2023-03-13T15:32:15;20.30;99.90
1626;DHT22;806;48.770;9.156;2023-03-13T15:34:46;20.30;99.90
1626;DHT22;806;48.770;9.156;2023-03-13T15:37:13;20.30;99.90
1626;DHT22;806;48.770;9.156;2023-03-13T15:39:40;20.30;99.90
1626;DHT22;806;48.770;9.156;2023-03-13T15:42:08;20.30;99.90
1626;DHT22;806;48.770;9.156;2023-03-13T15:44:35;20.30;99.90
1626;DHT22;806;48.770;9.156;2023-03-13T15:47:02;20.20;99.90
1626;DHT22;806;48.770;9.156;2023-03-13T15:49:29;20.20;99.90
1626;DHT22;806;48.770;9.156;2023-03-13T15:51:58;20.30;99.90
1626;DHT22;806;48.770;9.156;2023-03-13T15:54:25;20.30;99.90
1626;DHT22;806;48.770;9.156;2023-03-13T15:56:52;20.30;99.90
1626;DHT22;806;48.770;9.156;2023-03-13T15:59:20;20.20;99.90
1626;DHT22;806;48.770;9.156;2023-03-13T16:01:47;20.20;99.90
1626;DHT22;806;48.770;9.156;2023-03-13T16:04:14;20.20;99.90
1626;DHT22;806;48.770;9.156;2023-03-13T16:06:41;20.10;99.90
1626;DHT22;806;48.770;9.156;2023-03-13T16:09:11;20.20;99.90
1626;DHT22;806;48.770;9.156;2023-03-13T16:11:42;20.20;99.90
1626;DHT22;806;48.770;9.156;2023-03-13T16:14:10;20.20;99.90
1626;DHT22;806;48.770;9.156;2023-03-13T16:16:38;20.20;99.90
1626;DHT22;806;48.770;9.156;2023-03-13T16:19:07;20.10;99.90
1626;DHT22;806;48.770;9.156;2023-03-13T16:21:35;20.10;99.90
1626;DHT22;806;48.770;9.156;2023-03-13T16:24:05;20.00;99.90
1626;DHT22;806;48.770;9.156;2023-03-13T16:26:34;19.90;99.90
1626;DHT22;806;48.770;9.156;2023-03-13T16:29:01;19.90;99.90
1626;DHT22;806;48.770;9.156;2023-03-13T16:31:30;19.90;99.90
1626;DHT22;806;48.770;9.156;2023-03-13T16:33:58;19.70;99.90
1626;DHT22;806;48.770;9.156;2023-03-13T16:36:28;19.60;99.90
1626;DHT22;806;48.770;9.156;2023-03-13T16:38:57;19.50;99.90
1626;DHT22;806;48.770;9.156;2023-03-13T16:41:25;19.50;99.90
1626;DHT22;806;48.770;9.156;2023-03-13T16:43:55;19.40;99.90
1626;DHT22;806;48.770;9.156;2023-03-13T16:46:24;19.40;99.90
1626;DHT22;806;48.770;9.156;2023-03-13T16:48:51;19.40;99.90
1626;DHT22;806;48.770;9.156;2023-03-13T16:51:24;19.40;99.90
1626;DHT22;806;48.770;9.156;2023-03-13T16:53:54;19.30;99.90
1626;DHT22;806;48.770;9.156;2023-03-13T16:56:24;19.20;99.90
1626;DHT22;806;48.770;9.156;2023-03-13T16:58:57;19.10;99.90
1626;DHT22;806;48.770;9.156;2023-03-13T17:01:28;19.00;99.90